Time;durP1;ratioP1;P1;durP2;ratioP2;P2;SDS_P1;SDS_P2;PMS_P1;PMS_P2;Temp;Humidity;BMP_temperature;BMP_pressure;BME280_temperature;BME280_humidity;BME280_pressure;Samples;Min_cycle;Max_cycle;Signal;HPM_P1;HPM_P2
2021/12/29 00:00:31;;;;;;;15.90;4.10;;;4.60;99.90;;;;;;4959127;28;20187;-96
2021/12/29 00:03:00;;;;;;;14.77;4.33;;;4.60;99.90;;;;;;4976427;28;20216;-96
2021/12/29 00:05:27;;;;;;;11.03;3.90;;;4.60;99.90;;;;;;4955243;28;20628;-96
2021/12/29 00:07:52;;;;;;;13.67;4.20;;;4.50;99.90;;;;;;4958912;28;20683;-96
2021/12/29 00:10:19;;;;;;;13.30;3.90;;;4.50;99.90;;;;;;4959116;28;20180;-96
2021/12/29 00:12:49;;;;;;;10.87;4.27;;;4.50;99.90;;;;;;4958673;28;20212;-96
2021/12/29 00:15:17;;;;;;;10.07;3.77;;;4.50;99.90;;;;;;4958591;28;20196;-95
2021/12/29 00:17:45;;;;;;;20.27;4.67;;;4.50;99.90;;;;;;4958370;28;20649;-95
2021/12/29 00:20:14;;;;;;;14.23;4.33;;;4.40;99.90;;;;;;4974664;28;20189;-96
2021/12/29 00:22:41;;;;;;;9.40;4.17;;;4.40;99.90;;;;;;4959095;28;20687;-96
2021/12/29 00:25:07;;;;;;;10.70;4.33;;;4.40;99.90;;;;;;4958874;28;20188;-96
2021/12/29 00:27:33;;;;;;;11.23;3.80;;;4.40;99.90;;;;;;4958814;28;20220;-96
2021/12/29 00:29:59;;;;;;;9.70;3.90;;;4.40;99.90;;;;;;4958696;28;20600;-96
2021/12/29 00:32:27;;;;;;;9.73;4.20;;;4.30;99.90;;;;;;4958787;28;20189;-96
2021/12/29 00:34:53;;;;;;;11.40;3.77;;;4.30;99.90;;;;;;4959680;28;20197;-96
2021/12/29 00:37:20;;;;;;;12.03;3.60;;;4.30;99.90;;;;;;4959118;28;20247;-95
2021/12/29 00:39:46;;;;;;;12.10;4.27;;;4.30;99.90;;;;;;4958981;28;20188;-96
2021/12/29 00:42:11;;;;;;;10.20;4.03;;;4.30;99.90;;;;;;4959189;28;20192;-96
2021/12/29 00:44:37;;;;;;;10.83;4.90;;;4.20;99.90;;;;;;4959496;28;20647;-96
2021/12/29 00:47:03;;;;;;;12.50;4.50;;;4.20;99.90;;;;;;4955970;29;20196;-96
2021/12/29 00:49:35;;;;;;;10.53;4.50;;;4.20;99.90;;;;;;4954177;28;20192;-96
2021/12/29 00:52:05;;;;;;;13.40;4.20;;;4.20;99.90;;;;;;4943854;28;20227;-96
2021/12/29 00:54:32;;;;;;;11.80;4.33;;;4.20;99.90;;;;;;4958473;28;20197;-96
2021/12/29 00:56:58;;;;;;;10.30;4.20;;;4.20;99.90;;;;;;4958631;28;20193;-96
2021/12/29 00:59:24;;;;;;;11.33;4.17;;;4.20;99.90;;;;;;4958450;28;20307;-96
2021/12/29 01:01:50;;;;;;;10.67;4.43;;;4.20;99.90;;;;;;4959754;28;20500;-95
2021/12/29 01:04:17;;;;;;;9.60;4.03;;;4.10;99.90;;;;;;4962321;28;20228;-96
2021/12/29 01:06:43;;;;;;;16.47;5.47;;;4.10;99.90;;;;;;4961666;28;20287;-96
2021/12/29 01:09:09;;;;;;;14.03;4.40;;;4.10;99.90;;;;;;4962436;28;20247;-96
2021/12/29 01:11:35;;;;;;;15.20;5.00;;;4.00;99.90;;;;;;4961997;28;20189;-96
2021/12/29 01:14:00;;;;;;;9.87;4.43;;;4.10;99.90;;;;;;4962262;28;20196;-96
2021/12/29 01:19:08;;;;;;;14.13;4.70;;;4.00;99.90;;;;;;4979465;28;20218;-96
2021/12/29 01:21:35;;;;;;;13.03;4.87;;;4.00;99.90;;;;;;4961669;28;20211;-96
2021/12/29 01:24:04;;;;;;;10.87;4.33;;;4.00;99.90;;;;;;4961787;28;20228;-96
2021/12/29 01:29:05;;;;;;;11.37;4.90;;;4.00;99.90;;;;;;4981880;28;20303;-94
2021/12/29 01:31:46;;;;;;;12.90;4.83;;;4.00;99.90;;;;;;4966670;28;20239;-95
2021/12/29 01:34:15;;;;;;;11.67;4.90;;;4.00;99.90;;;;;;4966904;28;20204;-95
2021/12/29 01:36:41;;;;;;;12.80;4.63;;;4.00;99.90;;;;;;4967146;28;20242;-94
2021/12/29 01:39:15;;;;;;;11.57;4.70;;;4.00;99.90;;;;;;4967625;28;20188;-94
2021/12/29 01:41:46;;;;;;;14.23;5.70;;;4.00;99.90;;;;;;4967118;28;20187;-94
2021/12/29 01:44:23;;;;;;;15.07;5.00;;;4.10;99.90;;;;;;4967460;28;20220;-94
2021/12/29 01:46:53;;;;;;;14.57;5.60;;;4.20;99.90;;;;;;4950769;28;20719;-94
2021/12/29 01:49:20;;;;;;;12.60;5.07;;;4.20;99.90;;;;;;4966406;28;20227;-94
2021/12/29 01:52:01;;;;;;;14.03;5.43;;;4.20;99.90;;;;;;4966995;28;20181;-94
2021/12/29 01:54:35;;;;;;;15.30;5.37;;;4.30;99.90;;;;;;4967046;28;20224;-94
2021/12/29 01:57:10;;;;;;;15.50;5.93;;;4.30;99.90;;;;;;4967103;28;20275;-94
2021/12/29 01:59:36;;;;;;;14.90;6.50;;;4.40;99.90;;;;;;4966078;28;20184;-94
2021/12/29 02:02:16;;;;;;;15.57;6.50;;;4.50;99.90;;;;;;4966071;28;20647;-95
2021/12/29 02:04:52;;;;;;;14.77;6.20;;;4.50;99.90;;;;;;4967288;28;20188;-95
2021/12/29 02:07:18;;;;;;;16.23;6.00;;;4.60;99.90;;;;;;4966380;28;20212;-94
2021/12/29 02:09:45;;;;;;;16.57;6.53;;;4.60;99.90;;;;;;4966895;28;20185;-94
2021/12/29 02:12:13;;;;;;;15.40;6.23;;;4.60;99.90;;;;;;4966510;28;20548;-94
2021/12/29 02:14:43;;;;;;;13.77;6.53;;;4.60;99.90;;;;;;4965944;28;20181;-94
2021/12/29 02:17:13;;;;;;;16.07;6.10;;;4.60;99.90;;;;;;4966796;28;20263;-94
2021/12/29 02:19:46;;;;;;;20.90;7.23;;;4.60;99.90;;;;;;4967164;28;20181;-94
2021/12/29 02:22:42;;;;;;;19.70;6.33;;;4.60;99.90;;;;;;4965309;28;20218;-94
2021/12/29 02:25:34;;;;;;;13.83;6.63;;;4.60;99.90;;;;;;4966712;28;20555;-94
2021/12/29 02:28:02;;;;;;;15.70;6.70;;;4.60;99.90;;;;;;4964234;28;20236;-95
2021/12/29 02:30:28;;;;;;;16.87;7.07;;;4.60;99.90;;;;;;4965846;28;20198;-96
2021/12/29 02:33:02;;;;;;;17.67;7.53;;;4.60;99.90;;;;;;4966089;28;20188;-94
2021/12/29 02:35:46;;;;;;;20.33;7.83;;;4.60;99.90;;;;;;4965767;28;20211;-94
2021/12/29 02:38:32;;;;;;;17.37;7.80;;;4.60;99.90;;;;;;4966003;28;20216;-93
2021/12/29 02:41:05;;;;;;;16.10;8.10;;;4.60;99.90;;;;;;4965624;28;20192;-94
2021/12/29 02:43:36;;;;;;;18.20;7.60;;;4.60;99.90;;;;;;4966025;28;20220;-96
2021/12/29 02:46:11;;;;;;;15.27;7.23;;;4.60;99.90;;;;;;4965162;28;20183;-94
2021/12/29 02:48:58;;;;;;;14.73;7.93;;;4.60;99.90;;;;;;4965439;28;20176;-95
2021/12/29 02:51:32;;;;;;;19.53;7.80;;;4.60;99.90;;;;;;4964941;28;20180;-94
2021/12/29 02:53:58;;;;;;;17.00;7.67;;;4.60;99.90;;;;;;4965793;28;20227;-95
2021/12/29 02:56:33;;;;;;;17.63;8.37;;;4.60;99.90;;;;;;4965709;28;20208;-95
2021/12/29 02:59:00;;;;;;;14.10;7.97;;;4.60;99.90;;;;;;4964944;28;20184;-95
2021/12/29 03:01:36;;;;;;;18.57;8.37;;;4.60;99.90;;;;;;4965159;28;20184;-94
2021/12/29 03:04:16;;;;;;;15.67;8.60;;;4.60;99.90;;;;;;4965351;28;20212;-95
2021/12/29 03:06:58;;;;;;;15.33;8.60;;;4.50;99.90;;;;;;4965292;28;20208;-94
2021/12/29 03:09:24;;;;;;;15.37;8.03;;;4.50;99.90;;;;;;4965571;28;20192;-95
2021/12/29 03:11:51;;;;;;;16.30;9.37;;;4.50;99.90;;;;;;4965016;28;20285;-94
2021/12/29 03:14:21;;;;;;;13.73;8.53;;;4.50;99.90;;;;;;4965433;28;20181;-95
2021/12/29 03:16:48;;;;;;;15.43;9.40;;;4.50;99.90;;;;;;4964878;28;20205;-95
2021/12/29 03:19:16;;;;;;;17.73;9.70;;;4.50;99.90;;;;;;4965100;28;20219;-94
2021/12/29 03:21:52;;;;;;;20.47;9.80;;;4.50;99.90;;;;;;4965586;28;20184;-95
2021/12/29 03:24:22;;;;;;;18.60;10.50;;;4.50;99.90;;;;;;4964635;28;20220;-95
2021/12/29 03:26:51;;;;;;;21.17;10.77;;;4.50;99.90;;;;;;4964923;28;20224;-94
2021/12/29 03:29:33;;;;;;;17.93;10.03;;;4.50;99.90;;;;;;4964475;28;20216;-94
2021/12/29 03:32:08;;;;;;;21.77;10.10;;;4.50;99.90;;;;;;4963811;28;20552;-94
2021/12/29 03:34:36;;;;;;;17.53;9.97;;;4.50;99.90;;;;;;4964420;28;20184;-95
2021/12/29 03:37:05;;;;;;;20.27;10.57;;;4.50;99.90;;;;;;4964406;28;20208;-94
2021/12/29 03:39:38;;;;;;;19.47;10.67;;;4.40;99.90;;;;;;4964463;28;20185;-95
2021/12/29 03:42:11;;;;;;;22.30;11.80;;;4.40;99.90;;;;;;4963995;28;20188;-95
2021/12/29 03:44:41;;;;;;;20.27;11.30;;;4.50;99.90;;;;;;4963418;28;20207;-95
2021/12/29 03:47:07;;;;;;;23.57;11.60;;;4.50;99.90;;;;;;4964431;28;20201;-95
2021/12/29 03:49:34;;;;;;;22.27;11.80;;;4.50;99.90;;;;;;4963118;28;20216;-94
2021/12/29 03:52:00;;;;;;;20.23;12.10;;;4.50;99.90;;;;;;4963622;28;20211;-94
2021/12/29 03:54:29;;;;;;;23.07;12.67;;;4.50;99.90;;;;;;4963498;28;20193;-95
2021/12/29 03:56:55;;;;;;;20.83;12.53;;;4.50;99.90;;;;;;4963955;28;20212;-95
2021/12/29 03:59:23;;;;;;;27.10;13.03;;;4.50;99.90;;;;;;4964493;28;20561;-95
2021/12/29 04:01:50;;;;;;;25.13;13.27;;;4.50;99.90;;;;;;4964524;28;20620;-94
2021/12/29 04:04:23;;;;;;;19.83;13.37;;;4.50;99.90;;;;;;4963911;28;20264;-95
2021/12/29 04:06:50;;;;;;;25.30;13.17;;;4.50;99.90;;;;;;4964021;28;20290;-94
2021/12/29 04:09:38;;;;;;;25.87;13.00;;;4.50;99.90;;;;;;4964252;28;20601;-95
2021/12/29 04:12:07;;;;;;;23.10;12.40;;;4.50;99.90;;;;;;4964455;28;20184;-94
2021/12/29 04:14:41;;;;;;;23.80;13.83;;;4.50;99.90;;;;;;4964468;28;20271;-94
2021/12/29 04:17:18;;;;;;;25.23;14.70;;;4.50;99.90;;;;;;4964386;28;20218;-94
2021/12/29 04:22:34;;;;;;;27.47;14.90;;;4.60;99.90;;;;;;4981696;28;20255;-94
2021/12/29 04:25:03;;;;;;;24.17;14.23;;;4.50;99.90;;;;;;4963461;28;20207;-94
2021/12/29 04:27:33;;;;;;;26.53;15.20;;;4.50;99.90;;;;;;4963350;28;20220;-94
2021/12/29 04:30:00;;;;;;;27.63;14.63;;;4.60;99.90;;;;;;4964323;28;20215;-95
2021/12/29 04:32:26;;;;;;;26.13;14.87;;;4.60;99.90;;;;;;4963780;28;20195;-95
2021/12/29 04:34:58;;;;;;;30.17;15.00;;;4.70;99.90;;;;;;4964181;28;20184;-95
2021/12/29 04:37:28;;;;;;;24.77;14.93;;;4.60;99.90;;;;;;4966443;28;20211;-95
2021/12/29 04:40:06;;;;;;;23.57;14.73;;;4.70;99.90;;;;;;4967713;28;20211;-94
2021/12/29 04:42:33;;;;;;;31.70;15.20;;;4.70;99.90;;;;;;4967190;28;20188;-94
2021/12/29 04:44:59;;;;;;;27.23;15.70;;;4.70;99.90;;;;;;4967495;28;20216;-94
2021/12/29 04:47:29;;;;;;;31.67;17.30;;;4.70;99.90;;;;;;4967663;28;20204;-95
2021/12/29 04:50:00;;;;;;;32.97;17.37;;;4.80;99.90;;;;;;4967292;28;20189;-95
2021/12/29 04:52:28;;;;;;;30.93;16.70;;;4.80;99.90;;;;;;4967655;28;20188;-94
2021/12/29 04:54:56;;;;;;;33.57;17.73;;;4.80;99.90;;;;;;4967902;28;20185;-92
2021/12/29 04:57:22;;;;;;;29.67;17.00;;;4.80;99.90;;;;;;4967030;28;20204;-94
2021/12/29 04:59:50;;;;;;;32.93;18.77;;;4.80;99.90;;;;;;4967402;28;20189;-95
2021/12/29 05:02:19;;;;;;;35.37;18.93;;;4.90;99.90;;;;;;4966828;28;20184;-95
2021/12/29 05:04:48;;;;;;;35.67;19.73;;;4.90;99.90;;;;;;4967431;28;20282;-93
2021/12/29 05:10:18;;;;;;;39.70;19.40;;;5.00;99.90;;;;;;4984459;28;20184;-94
2021/12/29 05:12:44;;;;;;;45.73;19.80;;;5.00;99.90;;;;;;4966969;28;20243;-94
2021/12/29 05:15:12;;;;;;;39.67;18.27;;;5.00;99.90;;;;;;4966779;28;20252;-94
2021/12/29 05:17:48;;;;;;;42.77;20.13;;;4.90;99.90;;;;;;4967581;28;20580;-94
2021/12/29 05:20:14;;;;;;;44.87;20.97;;;5.00;99.90;;;;;;4966878;28;20278;-94
2021/12/29 05:22:42;;;;;;;46.87;20.43;;;4.90;99.90;;;;;;4967246;28;20212;-93
2021/12/29 05:25:08;;;;;;;38.47;19.80;;;5.00;99.90;;;;;;4966989;28;20650;-94
2021/12/29 05:27:36;;;;;;;39.73;20.20;;;5.00;99.90;;;;;;4967860;28;20240;-95
2021/12/29 05:30:03;;;;;;;39.53;18.53;;;5.00;99.90;;;;;;4967496;28;20212;-94
2021/12/29 05:32:32;;;;;;;42.10;19.43;;;5.00;99.90;;;;;;4966994;28;20189;-94
2021/12/29 05:35:06;;;;;;;47.33;21.33;;;4.90;99.90;;;;;;4967974;28;20193;-95
2021/12/29 05:37:33;;;;;;;46.57;21.33;;;4.90;99.90;;;;;;4967022;28;20213;-94
2021/12/29 05:39:59;;;;;;;42.00;20.00;;;5.00;99.90;;;;;;4967618;28;20192;-94
2021/12/29 05:42:29;;;;;;;49.23;21.70;;;5.00;99.90;;;;;;4966592;28;20216;-93
2021/12/29 05:45:08;;;;;;;48.43;21.23;;;5.00;99.90;;;;;;4965536;28;20189;-95
2021/12/29 05:47:35;;;;;;;49.20;21.20;;;5.00;99.90;;;;;;4965445;28;20232;-94
2021/12/29 05:50:05;;;;;;;51.83;21.57;;;5.00;99.90;;;;;;4965671;28;20188;-95
2021/12/29 05:52:37;;;;;;;43.30;20.73;;;5.00;99.90;;;;;;4965573;28;20252;-94
2021/12/29 05:55:05;;;;;;;50.33;19.83;;;5.00;99.90;;;;;;4965859;28;20227;-94
2021/12/29 05:57:32;;;;;;;51.57;21.80;;;5.10;99.90;;;;;;4965195;28;20235;-95
2021/12/29 06:00:06;;;;;;;51.70;21.57;;;5.00;99.90;;;;;;4966338;28;20195;-94
2021/12/29 06:02:32;;;;;;;47.20;18.90;;;5.00;99.90;;;;;;4964698;28;20175;-96
2021/12/29 06:04:58;;;;;;;55.17;21.43;;;5.00;99.90;;;;;;4964491;28;20643;-95
2021/12/29 06:07:26;;;;;;;48.90;21.00;;;5.00;99.90;;;;;;4965318;28;20205;-94
2021/12/29 06:09:51;;;;;;;52.60;20.77;;;5.00;99.90;;;;;;4964043;28;20184;-96
2021/12/29 06:12:26;;;;;;;50.43;20.23;;;5.00;99.90;;;;;;4962496;28;20181;-95
2021/12/29 06:14:54;;;;;;;57.57;19.93;;;5.10;99.90;;;;;;4961853;28;20251;-94
2021/12/29 06:17:23;;;;;;;47.73;20.83;;;5.10;99.90;;;;;;4961801;28;20204;-95
2021/12/29 06:19:52;;;;;;;51.47;21.23;;;5.10;99.90;;;;;;4964467;28;20185;-94
2021/12/29 06:22:18;;;;;;;46.47;19.53;;;5.10;99.90;;;;;;4963856;28;20193;-95
2021/12/29 06:24:51;;;;;;;48.57;20.13;;;5.10;99.90;;;;;;4965626;28;20189;-95
2021/12/29 06:27:37;;;;;;;51.47;20.20;;;5.10;99.90;;;;;;4961621;28;20256;-96
2021/12/29 06:30:12;;;;;;;52.40;19.97;;;5.10;99.90;;;;;;4962006;28;20184;-95
2021/12/29 06:32:57;;;;;;;50.97;20.63;;;5.10;99.90;;;;;;4962083;28;20198;-94
2021/12/29 06:35:26;;;;;;;56.80;19.80;;;5.10;99.90;;;;;;4961950;28;20185;-95
2021/12/29 06:37:58;;;;;;;54.57;20.87;;;5.10;99.90;;;;;;4961904;28;20208;-96
2021/12/29 06:40:26;;;;;;;49.90;20.60;;;5.10;99.90;;;;;;4962105;28;20184;-93
2021/12/29 06:42:52;;;;;;;55.03;20.13;;;5.10;99.90;;;;;;4961627;28;20217;-95
2021/12/29 06:45:18;;;;;;;53.20;21.00;;;5.10;99.90;;;;;;4962185;28;20280;-96
2021/12/29 06:47:45;;;;;;;62.70;21.07;;;5.10;99.90;;;;;;4963280;28;20240;-95
2021/12/29 06:50:18;;;;;;;59.60;20.37;;;5.10;99.90;;;;;;4963024;28;20176;-95
2021/12/29 06:53:00;;;;;;;;;;;;;;;;;;;;;
2021/12/29 06:55:33;;;;;;;56.10;19.97;;;5.10;99.90;;;;;;4977787;28;20676;-95
2021/12/29 06:57:59;;;;;;;48.23;19.60;;;5.10;99.90;;;;;;4962082;28;20234;-94
2021/12/29 07:00:26;;;;;;;54.70;19.13;;;5.10;99.90;;;;;;4960643;28;20184;-94
2021/12/29 07:02:52;;;;;;;60.03;20.10;;;5.10;99.90;;;;;;4959641;28;20554;-95
2021/12/29 07:05:18;;;;;;;56.50;19.00;;;5.10;99.90;;;;;;4959957;28;20187;-94
2021/12/29 07:08:02;;;;;;;58.67;19.63;;;5.10;99.90;;;;;;4959826;28;20539;-94
2021/12/29 07:10:30;;;;;;;57.73;18.93;;;5.20;99.90;;;;;;4959774;28;20184;-94
2021/12/29 07:12:56;;;;;;;58.40;19.40;;;5.10;99.90;;;;;;4964482;28;20227;-96
2021/12/29 07:15:38;;;;;;;54.97;18.37;;;5.10;99.90;;;;;;4968180;28;20193;-95
2021/12/29 07:18:04;;;;;;;48.43;17.40;;;5.10;99.90;;;;;;4969559;28;20216;-96
2021/12/29 07:20:41;;;;;;;52.30;17.53;;;5.20;99.90;;;;;;4968894;28;20268;-96
2021/12/29 07:23:15;;;;;;;51.17;17.57;;;5.20;99.90;;;;;;4968056;28;20227;-95
2021/12/29 07:25:43;;;;;;;44.17;17.10;;;5.20;99.90;;;;;;4967083;28;20194;-95
2021/12/29 07:28:10;;;;;;;52.70;18.23;;;5.20;99.90;;;;;;4967652;28;20264;-95
2021/12/29 07:30:38;;;;;;;52.53;18.57;;;5.20;99.90;;;;;;4969340;28;20195;-96
2021/12/29 07:33:04;;;;;;;48.00;16.63;;;5.20;99.90;;;;;;4967313;28;20228;-96
2021/12/29 07:35:40;;;;;;;49.57;17.00;;;5.20;99.90;;;;;;4967791;28;20193;-95
2021/12/29 07:38:07;;;;;;;45.70;16.77;;;5.20;99.90;;;;;;4969204;28;20251;-95
2021/12/29 07:40:35;;;;;;;45.90;16.30;;;5.20;99.90;;;;;;4968791;28;20199;-96
2021/12/29 07:43:07;;;;;;;47.33;16.83;;;5.20;99.90;;;;;;4968890;28;20212;-95
2021/12/29 07:45:42;;;;;;;39.80;15.47;;;5.20;99.90;;;;;;4968193;28;20188;-96
2021/12/29 07:48:14;;;;;;;48.17;16.57;;;5.20;99.90;;;;;;4968254;28;20210;-95
2021/12/29 07:50:47;;;;;;;44.90;16.67;;;5.30;99.90;;;;;;4967166;28;20213;-96
2021/12/29 07:53:12;;;;;;;42.80;16.27;;;5.30;99.90;;;;;;4959403;28;20196;-95
2021/12/29 07:55:38;;;;;;;49.77;17.27;;;5.30;99.90;;;;;;4962956;28;20196;-95
2021/12/29 07:58:09;;;;;;;46.20;16.43;;;5.30;99.90;;;;;;4960558;28;20295;-95
2021/12/29 08:00:39;;;;;;;47.37;16.10;;;5.20;99.90;;;;;;4963524;28;20189;-95
2021/12/29 08:03:08;;;;;;;42.97;15.33;;;5.30;99.90;;;;;;4963551;28;20217;-94
2021/12/29 08:05:39;;;;;;;44.47;16.20;;;5.40;99.90;;;;;;4962148;28;20184;-94
2021/12/29 08:08:29;;;;;;;37.47;14.53;;;5.50;99.90;;;;;;4961779;28;20204;-95
2021/12/29 08:10:59;;;;;;;34.70;13.63;;;5.50;99.90;;;;;;4961562;28;20627;-94
2021/12/29 08:13:26;;;;;;;33.77;13.20;;;5.60;99.90;;;;;;4961912;28;20188;-95
2021/12/29 08:16:06;;;;;;;34.50;13.03;;;5.60;99.90;;;;;;4961284;28;20192;-95
2021/12/29 08:18:39;;;;;;;32.37;12.27;;;5.50;99.90;;;;;;4960190;28;20195;-93
2021/12/29 08:21:22;;;;;;;28.80;12.03;;;5.60;99.90;;;;;;4959899;28;20188;-93
2021/12/29 08:23:55;;;;;;;29.33;12.10;;;5.60;99.90;;;;;;4961929;28;20276;-95
2021/12/29 08:26:29;;;;;;;32.30;12.47;;;5.60;99.90;;;;;;4959449;28;20208;-95
2021/12/29 08:29:01;;;;;;;30.93;12.13;;;5.60;99.90;;;;;;4960696;28;20220;-94
2021/12/29 08:34:54;;;;;;;22.97;10.53;;;5.70;99.90;;;;;;4976763;28;20172;-96
2021/12/29 08:37:28;;;;;;;20.57;8.97;;;5.80;99.90;;;;;;4958851;28;20214;-95
2021/12/29 08:40:11;;;;;;;20.40;8.90;;;5.80;99.90;;;;;;4959702;28;20208;-95
2021/12/29 08:42:58;;;;;;;22.70;9.33;;;5.90;99.90;;;;;;4959906;28;20650;-96
2021/12/29 08:45:31;;;;;;;22.50;8.63;;;5.80;99.90;;;;;;4958814;28;20316;-95
2021/12/29 08:48:11;;;;;;;21.43;8.67;;;5.70;99.90;;;;;;4958304;28;20290;-96
2021/12/29 08:50:39;;;;;;;20.70;8.57;;;5.80;99.90;;;;;;4958929;28;20267;-94
2021/12/29 08:53:13;;;;;;;20.33;8.83;;;5.80;99.90;;;;;;4958242;28;20211;-93
2021/12/29 08:55:46;;;;;;;19.27;8.80;;;5.80;99.90;;;;;;4958255;28;20193;-94
2021/12/29 08:58:19;;;;;;;22.30;8.37;;;5.80;99.90;;;;;;4958185;28;20204;-95
2021/12/29 09:04:06;;;;;;;19.63;8.40;;;5.80;99.90;;;;;;4975724;28;20288;-94
2021/12/29 09:06:34;;;;;;;20.97;8.07;;;5.80;99.90;;;;;;4958135;28;20211;-95
2021/12/29 09:09:04;;;;;;;20.20;8.00;;;5.80;99.90;;;;;;4959421;28;20181;-95
2021/12/29 09:11:35;;;;;;;24.50;8.40;;;5.80;99.90;;;;;;4958101;28;20544;-96
2021/12/29 09:14:10;;;;;;;22.77;8.57;;;5.80;99.90;;;;;;4957912;28;20189;-95
2021/12/29 09:16:45;;;;;;;24.73;9.27;;;5.80;99.90;;;;;;4957777;28;20212;-96
2021/12/29 09:19:56;;;;;;;22.07;8.43;;;5.80;99.90;;;;;;4958470;28;20251;-95
2021/12/29 09:22:31;;;;;;;22.60;7.97;;;5.80;99.90;;;;;;4958492;28;20271;-95
2021/12/29 09:24:57;;;;;;;21.27;7.93;;;5.90;99.90;;;;;;4961209;28;20188;-95
2021/12/29 09:27:51;;;;;;;23.10;8.03;;;5.80;99.90;;;;;;4961348;28;20232;-95
2021/12/29 09:30:37;;;;;;;27.17;8.90;;;5.90;99.90;;;;;;4961520;28;20193;-96
2021/12/29 09:33:21;;;;;;;27.43;10.60;;;5.90;99.90;;;;;;4961880;28;20199;-95
2021/12/29 09:35:57;;;;;;;22.83;9.97;;;6.00;99.90;;;;;;4961781;28;20184;-95
2021/12/29 09:38:36;;;;;;;17.27;8.47;;;6.10;99.90;;;;;;4957159;29;20193;-94
2021/12/29 09:41:05;;;;;;;18.73;7.90;;;6.10;99.90;;;;;;4961053;28;20192;-95
2021/12/29 09:43:31;;;;;;;17.37;7.40;;;6.10;99.90;;;;;;4960506;28;20690;-94
2021/12/29 09:46:02;;;;;;;19.93;7.83;;;6.10;99.90;;;;;;4960523;28;20761;-95
2021/12/29 09:48:28;;;;;;;12.23;6.40;;;6.10;99.90;;;;;;4962836;28;20546;-95
2021/12/29 09:51:34;;;;;;;15.80;6.77;;;6.20;99.90;;;;;;4962099;28;20181;-95
2021/12/29 09:54:14;;;;;;;12.73;5.80;;;6.30;99.90;;;;;;4962018;28;20658;-95
2021/12/29 09:56:40;;;;;;;13.77;6.10;;;6.20;99.90;;;;;;4962634;28;20208;-95
2021/12/29 09:59:06;;;;;;;14.43;6.67;;;6.20;99.90;;;;;;4962325;28;20321;-95
2021/12/29 10:01:34;;;;;;;18.00;6.90;;;6.20;99.90;;;;;;4962318;28;20181;-96
2021/12/29 10:04:14;;;;;;;14.03;6.57;;;6.20;99.90;;;;;;4960519;28;20306;-96
2021/12/29 10:06:41;;;;;;;16.60;7.40;;;6.20;99.90;;;;;;4960997;28;20200;-95
2021/12/29 10:09:14;;;;;;;14.90;6.13;;;6.20;99.90;;;;;;4960904;28;20185;-95
2021/12/29 10:11:40;;;;;;;12.63;5.93;;;6.10;99.90;;;;;;4961524;28;20260;-95
2021/12/29 10:14:13;;;;;;;14.93;6.30;;;6.10;99.90;;;;;;4962689;28;20255;-95
2021/12/29 10:16:40;;;;;;;16.77;6.53;;;6.10;99.90;;;;;;4961233;28;20219;-95
2021/12/29 10:22:24;;;;;;;12.57;5.33;;;6.10;99.90;;;;;;4979612;28;20168;-95
2021/12/29 10:25:02;;;;;;;12.03;5.77;;;6.10;99.90;;;;;;4946106;28;20248;-95
2021/12/29 10:27:36;;;;;;;15.10;5.77;;;6.10;99.90;;;;;;4962676;28;20239;-95
2021/12/29 10:30:43;;;;;;;15.07;5.90;;;6.10;99.90;;;;;;4962677;28;20259;-96
2021/12/29 10:33:37;;;;;;;12.77;5.13;;;6.10;99.90;;;;;;4963227;28;20191;-94
2021/12/29 10:36:21;;;;;;;10.60;5.20;;;6.20;99.90;;;;;;4963563;28;20180;-94
2021/12/29 10:38:58;;;;;;;11.57;5.37;;;6.20;99.90;;;;;;4963598;28;20176;-95
2021/12/29 10:41:28;;;;;;;11.80;5.60;;;6.30;99.90;;;;;;4963005;28;20181;-94
2021/12/29 10:44:01;;;;;;;10.50;5.60;;;6.20;99.90;;;;;;4963772;28;20217;-96
2021/12/29 10:46:36;;;;;;;12.17;5.80;;;6.20;99.90;;;;;;4962077;28;20211;-94
2021/12/29 10:51:54;;;;;;;13.43;5.73;;;6.30;99.90;;;;;;4978917;28;20184;-96
2021/12/29 10:54:54;;;;;;;12.53;5.37;;;6.30;99.90;;;;;;4963466;28;20671;-95
2021/12/29 10:57:22;;;;;;;10.67;4.93;;;6.30;99.90;;;;;;4964577;28;20683;-95
2021/12/29 10:59:55;;;;;;;12.83;5.90;;;6.30;99.90;;;;;;4964546;28;20944;-95
2021/12/29 11:02:29;;;;;;;13.03;4.93;;;6.30;99.90;;;;;;4964211;28;20191;-95
2021/12/29 11:05:10;;;;;;;11.80;5.80;;;6.30;99.90;;;;;;4948942;28;20662;-95
2021/12/29 11:07:47;;;;;;;10.60;5.03;;;6.40;99.90;;;;;;4964305;28;20207;-95
2021/12/29 11:10:17;;;;;;;10.23;5.33;;;6.40;99.90;;;;;;4965217;28;20638;-95
2021/12/29 11:12:47;;;;;;;11.40;5.30;;;6.50;99.90;;;;;;4969611;28;20181;-96
2021/12/29 11:15:25;;;;;;;9.03;4.57;;;6.50;99.90;;;;;;4969663;28;20208;-95
2021/12/29 11:17:59;;;;;;;10.77;4.83;;;6.40;99.90;;;;;;4966830;28;20241;-96
2021/12/29 11:20:28;;;;;;;10.13;4.80;;;6.50;99.90;;;;;;4966143;28;20729;-96
2021/12/29 11:23:24;;;;;;;8.57;4.47;;;6.60;99.90;;;;;;4965654;28;20295;-95
2021/12/29 11:25:51;;;;;;;8.93;5.07;;;6.60;99.90;;;;;;4966381;28;20212;-95
2021/12/29 11:28:36;;;;;;;12.60;5.27;;;6.70;99.90;;;;;;4966199;28;20294;-95
2021/12/29 11:31:17;;;;;;;13.60;5.53;;;6.70;99.90;;;;;;4966305;28;20188;-94
2021/12/29 11:33:56;;;;;;;11.07;5.27;;;6.70;99.90;;;;;;4966277;28;20196;-94
2021/12/29 11:36:22;;;;;;;14.47;6.13;;;6.70;99.90;;;;;;4965882;28;20574;-96
2021/12/29 11:38:57;;;;;;;14.03;5.17;;;6.80;99.90;;;;;;4964274;28;20192;-95
2021/12/29 11:41:26;;;;;;;16.03;5.93;;;6.80;99.90;;;;;;4967394;28;20194;-95
2021/12/29 11:43:57;;;;;;;13.53;6.53;;;6.90;99.90;;;;;;4966645;28;20220;-94
2021/12/29 11:46:29;;;;;;;11.87;6.40;;;7.00;99.90;;;;;;4966410;28;20204;-94
2021/12/29 11:49:07;;;;;;;13.37;6.87;;;7.00;99.90;;;;;;4968503;28;20185;-94
2021/12/29 11:52:02;;;;;;;13.67;6.97;;;7.10;99.90;;;;;;4966991;28;20222;-93
2021/12/29 11:54:50;;;;;;;12.70;7.10;;;7.10;99.90;;;;;;4958733;28;20220;-93
2021/12/29 11:57:22;;;;;;;12.67;7.00;;;7.00;99.90;;;;;;4968467;28;20220;-94
2021/12/29 11:59:53;;;;;;;15.23;7.20;;;7.00;99.90;;;;;;4968142;28;20192;-94
2021/12/29 12:02:26;;;;;;;14.67;7.73;;;7.00;99.90;;;;;;4968164;28;20252;-94
2021/12/29 12:05:24;;;;;;;19.70;8.60;;;7.00;99.90;;;;;;4966985;28;20220;-95
2021/12/29 12:08:06;;;;;;;15.93;8.27;;;7.00;99.90;;;;;;4968552;28;20204;-94
2021/12/29 12:10:36;;;;;;;16.17;8.73;;;7.00;99.90;;;;;;4967134;28;20180;-95
2021/12/29 12:13:07;;;;;;;15.07;8.47;;;7.00;99.90;;;;;;4967450;28;20192;-93
2021/12/29 12:15:41;;;;;;;16.03;8.43;;;7.10;99.90;;;;;;4968267;28;20670;-94
2021/12/29 12:18:09;;;;;;;17.33;8.70;;;7.10;99.90;;;;;;4967933;28;20215;-94
2021/12/29 12:20:51;;;;;;;19.03;9.10;;;7.10;99.90;;;;;;4967467;28;20647;-93
2021/12/29 12:23:32;;;;;;;16.30;8.00;;;7.00;99.90;;;;;;4968815;28;20234;-94
2021/12/29 12:26:10;;;;;;;15.70;8.20;;;7.00;99.90;;;;;;4967929;28;20250;-95
2021/12/29 12:28:46;;;;;;;17.43;7.97;;;7.00;99.90;;;;;;4968548;28;20215;-94
2021/12/29 12:31:37;;;;;;;14.87;7.63;;;7.00;99.90;;;;;;4968210;28;20196;-94
2021/12/29 12:34:10;;;;;;;13.80;7.73;;;7.00;99.90;;;;;;4967958;28;20196;-94
2021/12/29 12:36:47;;;;;;;19.00;8.63;;;7.00;99.90;;;;;;4968604;28;20208;-94
2021/12/29 12:39:21;;;;;;;17.00;8.53;;;6.90;99.90;;;;;;4968253;28;20634;-94
2021/12/29 12:41:53;;;;;;;17.33;9.07;;;7.00;99.90;;;;;;4968170;28;20211;-94
2021/12/29 12:44:42;;;;;;;17.73;9.40;;;7.00;99.90;;;;;;4968779;28;20212;-94
2021/12/29 12:47:15;;;;;;;18.43;8.50;;;6.90;99.90;;;;;;4968422;28;20243;-94
2021/12/29 12:49:51;;;;;;;18.27;8.97;;;6.90;99.90;;;;;;4967678;28;20211;-94
2021/12/29 12:52:23;;;;;;;18.33;9.17;;;6.90;99.90;;;;;;4966968;28;20184;-94
2021/12/29 12:55:07;;;;;;;24.13;10.03;;;6.90;99.90;;;;;;4967511;28;20185;-94
2021/12/29 12:57:37;;;;;;;20.53;9.47;;;6.90;99.90;;;;;;4969098;28;20207;-94
2021/12/29 13:00:29;;;;;;;17.93;9.13;;;6.90;99.90;;;;;;4970679;28;20235;-94
2021/12/29 13:03:01;;;;;;;22.73;9.67;;;6.90;99.90;;;;;;4971854;28;20577;-94
2021/12/29 13:05:30;;;;;;;23.53;9.57;;;6.90;99.90;;;;;;4972794;28;20187;-95
2021/12/29 13:08:30;;;;;;;20.80;10.10;;;6.90;99.90;;;;;;4972297;28;20231;-95
2021/12/29 13:11:24;;;;;;;23.87;10.00;;;6.90;99.90;;;;;;4960128;28;20253;-94
2021/12/29 13:13:55;;;;;;;19.77;9.80;;;6.90;99.90;;;;;;4970749;28;20189;-94
2021/12/29 13:16:26;;;;;;;20.17;9.83;;;6.90;99.90;;;;;;4971949;28;20239;-96
2021/12/29 13:19:00;;;;;;;22.90;10.90;;;6.90;99.90;;;;;;4971826;28;20239;-95
2021/12/29 13:21:36;;;;;;;20.50;10.50;;;6.90;99.90;;;;;;4970814;28;20324;-94
2021/12/29 13:24:08;;;;;;;21.10;11.30;;;7.00;99.90;;;;;;4971647;28;20235;-96
2021/12/29 13:26:40;;;;;;;22.07;10.90;;;7.00;99.90;;;;;;4971895;28;20201;-95
2021/12/29 13:29:11;;;;;;;18.33;10.60;;;7.00;99.90;;;;;;4970193;28;20298;-95
2021/12/29 13:31:39;;;;;;;19.43;11.03;;;7.00;99.90;;;;;;4970784;28;20185;-94
2021/12/29 13:34:05;;;;;;;21.00;11.03;;;7.00;99.90;;;;;;4971711;28;20647;-96